createdAt,value
2018-10-11T00:01:37.191Z,14.91
2018-10-11T00:04:05.592Z,14.92
2018-10-11T00:06:33.954Z,14.93
2018-10-11T00:09:02.314Z,14.93
2018-10-11T00:11:30.703Z,14.92
2018-10-11T00:13:59.094Z,14.89
2018-10-11T00:16:27.343Z,14.88
2018-10-11T00:18:55.707Z,14.89
2018-10-11T00:21:24.050Z,14.87
2018-10-11T00:23:52.494Z,14.83
2018-10-11T00:26:20.883Z,14.75
2018-10-11T00:28:49.245Z,14.68
2018-10-11T00:31:17.824Z,14.65
2018-10-11T00:33:46.097Z,14.64
2018-10-11T00:36:14.717Z,14.65
2018-10-11T00:38:43.061Z,14.63
2018-10-11T00:41:11.541Z,14.62
2018-10-11T00:43:40.347Z,14.61
2018-10-11T00:46:08.803Z,14.59
2018-10-11T00:48:37.135Z,14.55
2018-10-11T00:51:05.497Z,14.56
2018-10-11T00:53:33.913Z,14.61
2018-10-11T00:56:02.311Z,14.64
2018-10-11T00:58:30.765Z,14.69
2018-10-11T01:00:59.075Z,14.70
2018-10-11T01:03:27.457Z,14.71
2018-10-11T01:05:55.879Z,14.74
2018-10-11T01:08:24.196Z,14.76
2018-10-11T01:10:52.621Z,14.81
2018-10-11T01:13:21.021Z,14.88
2018-10-11T01:15:49.291Z,14.90
2018-10-11T01:18:17.931Z,14.93
2018-10-11T01:20:46.638Z,14.92
2018-10-11T01:23:15.000Z,14.91
2018-10-11T01:25:43.407Z,14.91
2018-10-11T01:28:11.797Z,14.93
2018-10-11T01:30:44.281Z,14.94
2018-10-11T01:33:12.623Z,14.93
2018-10-11T01:35:41.065Z,14.88
2018-10-11T01:38:09.539Z,14.83
2018-10-11T01:40:37.980Z,14.79
2018-10-11T01:43:06.961Z,14.75
2018-10-11T01:45:35.819Z,14.75
2018-10-11T01:48:04.218Z,14.71
2018-10-11T01:50:32.749Z,14.65
2018-10-11T01:53:01.175Z,14.62
2018-10-11T01:55:30.037Z,14.60
2018-10-11T01:57:59.466Z,14.55
2018-10-11T02:00:27.982Z,14.50
2018-10-11T02:02:58.665Z,14.44
2018-10-11T02:05:27.705Z,14.41
2018-10-11T02:07:57.011Z,14.38
2018-10-11T02:10:26.141Z,14.31
2018-10-11T02:12:54.518Z,14.26
2018-10-11T02:15:22.823Z,14.23
2018-10-11T02:17:51.882Z,14.14
2018-10-11T02:20:20.253Z,14.06
2018-10-11T02:22:48.588Z,14.01
2018-10-11T02:25:16.963Z,13.95
2018-10-11T02:27:46.289Z,13.92
2018-10-11T02:30:14.743Z,13.91
2018-10-11T02:32:43.507Z,13.88
2018-10-11T02:35:12.594Z,13.87
2018-10-11T02:37:41.551Z,13.87
2018-10-11T02:40:10.000Z,13.88
2018-10-11T02:42:38.488Z,13.87
2018-10-11T02:45:07.517Z,13.86
2018-10-11T02:47:35.805Z,13.84
2018-10-11T02:50:04.326Z,13.83
2018-10-11T02:52:32.694Z,13.84
2018-10-11T02:55:01.318Z,13.84
2018-10-11T02:57:40.918Z,13.81
2018-10-11T03:00:09.654Z,13.80
2018-10-11T03:02:39.158Z,13.83
2018-10-11T03:05:12.882Z,13.87
2018-10-11T03:07:41.230Z,13.92
2018-10-11T03:10:09.742Z,13.95
2018-10-11T03:12:38.378Z,13.94
2018-10-11T03:15:07.142Z,13.92
2018-10-11T03:17:35.494Z,13.93
2018-10-11T03:20:04.074Z,13.93
2018-10-11T03:22:32.695Z,13.94
2018-10-11T03:25:00.978Z,13.94
2018-10-11T03:27:29.550Z,13.94
2018-10-11T03:29:57.928Z,13.93
2018-10-11T03:32:26.225Z,13.93
2018-10-11T03:34:54.930Z,13.93
2018-10-11T03:37:23.287Z,13.94
2018-10-11T03:39:51.658Z,13.91
2018-10-11T03:42:20.054Z,13.90
2018-10-11T03:44:48.382Z,13.88
2018-10-11T03:47:16.799Z,13.80
2018-10-11T03:49:45.200Z,13.76
2018-10-11T03:52:13.539Z,13.72
2018-10-11T03:54:42.214Z,13.68
2018-10-11T03:57:10.686Z,13.67
2018-10-11T03:59:39.066Z,13.66
2018-10-11T04:02:07.495Z,13.64
2018-10-11T04:04:35.944Z,13.63
2018-10-11T04:07:04.354Z,13.64
2018-10-11T04:09:32.727Z,13.64
2018-10-11T04:12:01.304Z,13.63
2018-10-11T04:14:29.695Z,13.63
2018-10-11T04:16:58.477Z,13.66
2018-10-11T04:19:26.870Z,13.68
2018-10-11T04:21:56.010Z,13.70
2018-10-11T04:24:25.358Z,13.71
2018-10-11T04:26:53.754Z,13.74
2018-10-11T04:29:22.135Z,13.76
2018-10-11T04:31:50.470Z,13.77
2018-10-11T04:34:18.882Z,13.78
2018-10-11T04:36:47.217Z,13.75
2018-10-11T04:39:15.494Z,13.73
2018-10-11T04:41:47.082Z,13.71
2018-10-11T04:44:15.377Z,13.69
2018-10-11T04:46:43.703Z,13.68
2018-10-11T04:49:12.481Z,13.68
2018-10-11T04:51:41.458Z,13.67
2018-10-11T04:54:09.961Z,13.64
2018-10-11T04:56:38.300Z,13.61
2018-10-11T04:59:07.090Z,13.61
2018-10-11T05:01:35.423Z,13.62
2018-10-11T05:04:03.769Z,13.62
2018-10-11T05:06:32.084Z,13.63
2018-10-11T05:09:00.631Z,13.63
2018-10-11T05:11:28.993Z,13.64
2018-10-11T05:13:58.487Z,13.64
2018-10-11T05:16:26.989Z,13.63
2018-10-11T05:18:57.426Z,13.62
2018-10-11T05:21:26.027Z,13.63
2018-10-11T05:23:54.281Z,13.61
2018-10-11T05:26:22.753Z,13.59
2018-10-11T05:28:51.073Z,13.57
2018-10-11T05:31:19.482Z,13.53
2018-10-11T05:33:48.354Z,13.51
2018-10-11T05:36:16.696Z,13.48
2018-10-11T05:38:45.278Z,13.49
2018-10-11T05:41:14.083Z,13.49
2018-10-11T05:43:42.483Z,13.50
2018-10-11T05:46:22.585Z,13.53
2018-10-11T05:48:51.518Z,13.56
2018-10-11T05:51:20.768Z,13.61
2018-10-11T05:53:50.020Z,13.64
2018-10-11T05:56:20.056Z,13.67
2018-10-11T05:58:48.750Z,13.68
2018-10-11T06:01:17.180Z,13.73
2018-10-11T06:03:45.786Z,13.78
2018-10-11T06:06:14.247Z,13.82
2018-10-11T06:08:42.950Z,13.83
2018-10-11T06:11:11.801Z,13.81
2018-10-11T06:13:40.249Z,13.74
2018-10-11T06:16:08.607Z,13.69
2018-10-11T06:18:37.338Z,13.65
2018-10-11T06:21:05.947Z,13.63
2018-10-11T06:23:34.378Z,13.65
2018-10-11T06:26:02.667Z,13.68
2018-10-11T06:28:31.131Z,13.73
2018-10-11T06:30:59.766Z,13.80
2018-10-11T06:33:28.185Z,13.87
2018-10-11T06:35:56.973Z,13.98
2018-10-11T06:38:25.503Z,14.09
2018-10-11T06:40:53.836Z,14.21
2018-10-11T06:43:22.202Z,14.33
2018-10-11T06:45:50.835Z,14.45
2018-10-11T06:48:19.230Z,14.56
2018-10-11T06:50:47.760Z,14.67
2018-10-11T06:53:16.167Z,14.79
2018-10-11T06:55:44.467Z,14.91
2018-10-11T06:58:12.910Z,15.04
2018-10-11T07:00:41.348Z,15.15
2018-10-11T07:03:09.718Z,15.30
2018-10-11T07:05:38.158Z,15.41
2018-10-11T07:08:06.630Z,15.51
2018-10-11T07:10:35.040Z,15.62
2018-10-11T07:13:03.349Z,15.73
2018-10-11T07:15:31.710Z,15.85
2018-10-11T07:18:00.133Z,15.98
2018-10-11T07:20:28.565Z,16.10
2018-10-11T07:22:57.034Z,16.22
2018-10-11T07:25:25.448Z,16.32
2018-10-11T07:27:54.006Z,16.45
2018-10-11T07:30:22.690Z,16.59
2018-10-11T07:32:51.149Z,16.70
2018-10-11T07:35:19.867Z,16.82
2018-10-11T07:37:48.055Z,16.92
2018-10-11T07:40:16.430Z,17.02
2018-10-11T07:42:46.171Z,17.12
2018-10-11T07:45:14.531Z,17.24
2018-10-11T07:47:42.797Z,17.32
2018-10-11T07:50:11.187Z,17.42
2018-10-11T07:52:39.531Z,17.51
2018-10-11T07:55:08.107Z,17.61
2018-10-11T07:57:36.443Z,17.67
2018-10-11T08:00:04.978Z,17.74
2018-10-11T08:02:33.448Z,17.82
2018-10-11T08:05:01.770Z,17.92
2018-10-11T08:07:30.335Z,17.99
2018-10-11T08:09:58.591Z,18.05
2018-10-11T08:12:26.983Z,18.15
2018-10-11T08:14:55.431Z,18.24
2018-10-11T08:17:23.989Z,18.35
2018-10-11T08:19:52.303Z,18.45
2018-10-11T08:22:20.562Z,18.54
2018-10-11T08:24:49.083Z,18.62
2018-10-11T08:27:17.419Z,18.74
2018-10-11T08:29:46.042Z,18.86
2018-10-11T08:32:14.499Z,18.96
2018-10-11T08:34:42.786Z,19.07
2018-10-11T08:37:11.488Z,19.20
2018-10-11T08:39:39.862Z,19.32
2018-10-11T08:42:08.546Z,19.43
2018-10-11T08:44:37.279Z,19.54
2018-10-11T08:47:05.622Z,19.65
2018-10-11T08:49:34.062Z,19.80
2018-10-11T08:52:02.382Z,19.91
2018-10-11T08:54:36.062Z,20.00
2018-10-11T08:57:04.423Z,20.14
2018-10-11T08:59:32.753Z,20.28
2018-10-11T09:02:01.202Z,20.37
2018-10-11T09:04:29.518Z,20.49
2018-10-11T09:06:57.867Z,20.58
2018-10-11T09:09:26.269Z,20.69
2018-10-11T09:11:54.793Z,20.82
2018-10-11T09:14:23.232Z,20.93
2018-10-11T09:16:51.546Z,21.02
2018-10-11T09:19:19.942Z,21.13
2018-10-11T09:21:48.548Z,21.23
2018-10-11T09:24:17.126Z,21.32
2018-10-11T09:26:45.326Z,21.41
2018-10-11T09:29:13.922Z,21.51
2018-10-11T09:31:42.304Z,21.58
2018-10-11T09:34:10.850Z,21.65
2018-10-11T09:36:39.596Z,21.70
2018-10-11T09:39:09.194Z,21.73
2018-10-11T09:41:38.443Z,21.83
2018-10-11T09:44:07.326Z,21.88
2018-10-11T09:46:35.792Z,21.92
2018-10-11T09:49:04.662Z,21.99
2018-10-11T09:51:32.985Z,22.07
2018-10-11T09:54:01.346Z,22.15
2018-10-11T09:57:41.674Z,22.21
2018-10-11T10:00:16.413Z,22.34
2018-10-11T10:02:45.787Z,22.45
2018-10-11T10:05:14.074Z,22.54
2018-10-11T10:07:42.590Z,22.60
2018-10-11T10:10:11.015Z,22.66
2018-10-11T10:12:39.365Z,22.72
2018-10-11T10:15:07.805Z,22.79
2018-10-11T10:17:36.714Z,22.84
2018-10-11T10:20:05.327Z,22.96
2018-10-11T10:22:33.868Z,23.05
2018-10-11T10:25:02.375Z,23.12
2018-10-11T10:27:30.861Z,23.19
2018-10-11T10:29:59.134Z,23.25
2018-10-11T10:32:27.532Z,23.33
2018-10-11T10:34:56.819Z,23.44
2018-10-11T10:37:25.239Z,23.54
2018-10-11T10:39:53.634Z,23.59
2018-10-11T10:42:21.974Z,23.65
2018-10-11T10:44:50.342Z,23.71
2018-10-11T10:47:18.803Z,23.82
2018-10-11T10:49:47.246Z,23.90
2018-10-11T10:52:15.565Z,23.99
2018-10-11T10:54:43.981Z,24.07
2018-10-11T10:57:12.929Z,24.14
2018-10-11T10:59:41.317Z,24.22
2018-10-11T11:02:09.803Z,24.28
2018-10-11T11:04:38.142Z,24.37
2018-10-11T11:07:06.587Z,24.49
2018-10-11T11:09:34.946Z,24.59
2018-10-11T11:12:03.502Z,24.68
2018-10-11T11:14:31.915Z,24.75
2018-10-11T11:17:00.311Z,24.84
2018-10-11T11:19:28.723Z,24.94
2018-10-11T11:21:57.031Z,25.03
2018-10-11T11:24:25.435Z,25.10
2018-10-11T11:26:53.783Z,25.17
2018-10-11T11:29:22.157Z,25.26
2018-10-11T11:31:50.459Z,25.32
2018-10-11T11:34:18.805Z,25.42
2018-10-11T11:36:47.183Z,25.49
2018-10-11T11:39:15.707Z,25.59
2018-10-11T11:41:44.095Z,25.66
2018-10-11T11:44:12.431Z,25.73
2018-10-11T11:46:40.910Z,25.83
2018-10-11T11:49:09.193Z,25.90
2018-10-11T11:51:37.644Z,25.95
2018-10-11T11:54:10.243Z,26.00
2018-10-11T11:56:38.615Z,26.07
2018-10-11T11:59:07.052Z,26.12
2018-10-11T12:01:35.710Z,26.23
2018-10-11T12:04:04.128Z,26.29
2018-10-11T12:06:32.423Z,26.35
2018-10-11T12:09:09.911Z,26.42
2018-10-11T12:11:38.218Z,26.45
2018-10-11T12:14:07.171Z,26.50
2018-10-11T12:16:36.066Z,26.54
2018-10-11T12:19:04.351Z,26.58
2018-10-11T12:21:32.870Z,26.60
2018-10-11T12:24:01.442Z,26.65
2018-10-11T12:26:29.725Z,26.70
2018-10-11T12:28:58.177Z,26.77
2018-10-11T12:31:27.256Z,26.85
2018-10-11T12:33:55.590Z,26.88
2018-10-11T12:36:23.975Z,26.89
2018-10-11T12:38:52.406Z,26.91
2018-10-11T12:41:20.689Z,26.95
2018-10-11T12:43:48.980Z,26.98
2018-10-11T12:46:17.882Z,27.03
2018-10-11T12:48:46.258Z,27.08
2018-10-11T12:51:14.883Z,27.08
2018-10-11T12:53:46.082Z,27.11
2018-10-11T12:56:11.926Z,27.16
2018-10-11T12:58:40.281Z,27.22
2018-10-11T13:01:08.642Z,27.27
2018-10-11T13:03:37.033Z,27.30
2018-10-11T13:06:05.407Z,27.34
2018-10-11T13:08:33.769Z,27.37
2018-10-11T13:11:02.166Z,27.39
2018-10-11T13:13:30.526Z,27.40
2018-10-11T13:16:02.839Z,27.43
2018-10-11T13:18:28.061Z,27.45
2018-10-11T13:20:56.397Z,27.46
2018-10-11T13:23:24.837Z,27.49
2018-10-11T13:25:53.337Z,27.52
2018-10-11T13:28:21.923Z,27.55
2018-10-11T13:30:50.618Z,27.57
2018-10-11T13:33:18.904Z,27.58
2018-10-11T13:35:47.365Z,27.58
2018-10-11T13:38:15.822Z,27.59
2018-10-11T13:40:44.237Z,27.61
2018-10-11T13:43:12.535Z,27.61
2018-10-11T13:45:40.858Z,27.63
2018-10-11T13:48:09.288Z,27.66
2018-10-11T13:50:37.877Z,27.69
2018-10-11T13:53:08.095Z,27.69
2018-10-11T13:55:36.623Z,27.66
2018-10-11T13:58:05.110Z,27.65
2018-10-11T14:00:33.820Z,27.64
2018-10-11T14:03:15.255Z,27.68
2018-10-11T14:05:54.972Z,27.68
2018-10-11T14:08:23.625Z,27.68
2018-10-11T14:10:52.030Z,27.68
2018-10-11T14:13:20.779Z,27.68
2018-10-11T14:15:48.802Z,27.71
2018-10-11T14:18:17.142Z,27.67
2018-10-11T14:20:45.581Z,27.65
2018-10-11T14:23:13.884Z,27.64
2018-10-11T14:25:42.202Z,27.64
2018-10-11T14:28:10.659Z,27.65
2018-10-11T14:30:39.033Z,27.64
2018-10-11T14:33:07.413Z,27.62
2018-10-11T14:35:35.885Z,27.61
2018-10-11T14:38:04.318Z,27.58
2018-10-11T14:40:32.762Z,27.54
2018-10-11T14:43:01.205Z,27.48
2018-10-11T14:45:29.639Z,27.46
2018-10-11T14:47:57.999Z,27.41
2018-10-11T14:50:26.339Z,27.39
2018-10-11T14:52:54.667Z,27.31
2018-10-11T14:55:23.045Z,27.27
2018-10-11T14:57:51.501Z,27.22
2018-10-11T15:00:20.176Z,27.14
2018-10-11T15:02:48.501Z,27.07
2018-10-11T15:05:16.930Z,27.04
2018-10-11T15:07:45.218Z,26.96
2018-10-11T15:10:13.757Z,26.86
2018-10-11T15:12:42.094Z,26.75
2018-10-11T15:15:10.586Z,26.66
2018-10-11T15:17:38.983Z,26.59
2018-10-11T15:20:07.294Z,26.47
2018-10-11T15:22:35.720Z,26.42
2018-10-11T15:25:04.202Z,26.39
2018-10-11T15:27:32.859Z,26.29
2018-10-11T15:30:01.266Z,26.23
2018-10-11T15:32:29.747Z,26.18
2018-10-11T15:34:58.529Z,26.12
2018-10-11T15:37:26.785Z,26.05
2018-10-11T15:39:55.174Z,25.97
2018-10-11T15:42:23.662Z,25.88
2018-10-11T15:44:51.990Z,25.81
2018-10-11T15:47:20.302Z,25.71
2018-10-11T15:49:48.980Z,25.63
2018-10-11T15:52:17.528Z,25.57
2018-10-11T15:54:45.842Z,25.45
2018-10-11T15:57:14.551Z,25.28
2018-10-11T15:59:43.346Z,25.03
2018-10-11T16:02:11.787Z,24.86
2018-10-11T16:04:40.099Z,24.73
2018-10-11T16:07:08.530Z,24.63
2018-10-11T16:09:36.855Z,24.50
2018-10-11T16:12:05.377Z,24.36
2018-10-11T16:14:33.706Z,24.26
2018-10-11T16:17:02.078Z,24.15
2018-10-11T16:19:30.544Z,24.06
2018-10-11T16:21:58.850Z,23.96
2018-10-11T16:24:27.214Z,23.90
2018-10-11T16:26:55.649Z,23.84
2018-10-11T16:29:23.955Z,23.80
2018-10-11T16:31:52.417Z,23.73
2018-10-11T16:34:20.733Z,23.67
2018-10-11T16:36:49.077Z,23.62
2018-10-11T16:39:17.590Z,23.55
2018-10-11T16:41:45.898Z,23.48
2018-10-11T16:44:14.433Z,23.43
2018-10-11T16:46:42.823Z,23.34
2018-10-11T16:49:11.122Z,23.33
2018-10-11T16:51:39.657Z,23.28
2018-10-11T16:54:08.546Z,23.16
2018-10-11T16:56:37.007Z,23.03
2018-10-11T16:59:05.345Z,22.91
2018-10-11T17:01:33.812Z,22.71
2018-10-11T17:04:02.862Z,22.54
2018-10-11T17:06:31.219Z,22.49
2018-10-11T17:08:59.597Z,22.44
2018-10-11T17:11:28.156Z,22.26
2018-10-11T17:13:56.530Z,22.15
2018-10-11T17:16:24.905Z,21.97
2018-10-11T17:18:53.314Z,21.77
2018-10-11T17:21:21.701Z,21.54
2018-10-11T17:23:50.038Z,21.37
2018-10-11T17:26:18.636Z,21.16
2018-10-11T17:28:46.950Z,21.00
2018-10-11T17:31:15.374Z,20.88
2018-10-11T17:33:43.710Z,20.81
2018-10-11T17:36:12.158Z,20.75
2018-10-11T17:38:40.458Z,20.67
2018-10-11T17:41:08.845Z,20.64
2018-10-11T17:43:37.176Z,20.64
2018-10-11T17:46:05.605Z,20.58
2018-10-11T17:48:33.926Z,20.49
2018-10-11T17:51:02.274Z,20.48
2018-10-11T17:53:30.674Z,20.52
2018-10-11T17:55:59.382Z,20.35
2018-10-11T17:58:27.858Z,20.30
2018-10-11T18:00:56.310Z,20.20
2018-10-11T18:03:24.828Z,20.19
2018-10-11T18:05:53.086Z,20.17
2018-10-11T18:08:21.475Z,20.13
2018-10-11T18:10:49.877Z,20.04
2018-10-11T18:13:18.167Z,20.01
2018-10-11T18:15:46.502Z,20.00
2018-10-11T18:18:15.402Z,20.01
2018-10-11T18:20:43.756Z,19.99
2018-10-11T18:23:12.216Z,19.99
2018-10-11T18:25:40.584Z,19.98
2018-10-11T18:28:08.909Z,19.92
2018-10-11T18:30:37.274Z,19.86
2018-10-11T18:33:05.715Z,19.84
2018-10-11T18:35:34.304Z,19.68
2018-10-11T18:38:02.590Z,19.63
2018-10-11T18:40:30.907Z,19.53
2018-10-11T18:42:59.346Z,19.48
2018-10-11T18:45:27.675Z,19.42
2018-10-11T18:47:56.069Z,19.32
2018-10-11T18:50:24.407Z,19.30
2018-10-11T18:52:52.793Z,19.28
2018-10-11T18:55:21.885Z,19.20
2018-10-11T18:57:50.608Z,19.03
2018-10-11T19:00:18.863Z,18.89
2018-10-11T19:02:47.249Z,18.85
2018-10-11T19:05:15.680Z,18.78
2018-10-11T19:07:44.106Z,18.62
2018-10-11T19:10:12.733Z,18.52
2018-10-11T19:12:41.057Z,18.49
2018-10-11T19:15:09.489Z,18.48
2018-10-11T19:17:37.923Z,18.38
2018-10-11T19:20:06.295Z,18.42
2018-10-11T19:22:34.996Z,18.41
2018-10-11T19:25:03.446Z,18.44
2018-10-11T19:27:31.904Z,18.44
2018-10-11T19:30:00.198Z,18.41
2018-10-11T19:32:28.812Z,18.41
2018-10-11T19:34:57.110Z,18.36
2018-10-11T19:37:25.440Z,18.30
2018-10-11T19:39:54.024Z,18.27
2018-10-11T19:42:22.406Z,18.26
2018-10-11T19:44:50.746Z,18.27
2018-10-11T19:47:19.187Z,18.24
2018-10-11T19:49:47.684Z,18.22
2018-10-11T19:52:16.086Z,18.20
2018-10-11T19:54:44.762Z,18.13
2018-10-11T19:57:13.186Z,18.11
2018-10-11T19:59:41.558Z,18.13
2018-10-11T20:02:10.020Z,18.11
2018-10-11T20:04:38.433Z,18.01
2018-10-11T20:07:07.034Z,17.84
2018-10-11T20:09:35.361Z,17.62
2018-10-11T20:12:03.850Z,17.52
2018-10-11T20:14:32.229Z,17.61
2018-10-11T20:17:00.673Z,17.49
2018-10-11T20:19:28.987Z,17.47
2018-10-11T20:21:57.332Z,17.45
2018-10-11T20:24:26.033Z,17.29
2018-10-11T20:26:54.331Z,17.31
2018-10-11T20:29:22.735Z,17.33
2018-10-11T20:31:51.079Z,17.32
2018-10-11T20:34:19.752Z,17.28
2018-10-11T20:36:48.058Z,17.28
2018-10-11T20:39:16.590Z,17.28
2018-10-11T20:41:44.947Z,17.26
2018-10-11T20:44:13.259Z,17.25
2018-10-11T20:46:41.660Z,17.30
2018-10-11T20:49:10.331Z,17.28
2018-10-11T20:51:39.074Z,17.29
2018-10-11T20:54:07.488Z,17.23
2018-10-11T20:56:37.030Z,17.30
2018-10-11T20:59:05.409Z,17.33
2018-10-11T21:01:34.489Z,17.32
2018-10-11T21:04:02.997Z,17.28
2018-10-11T21:06:31.398Z,17.24
2018-10-11T21:08:59.758Z,17.18
2018-10-11T21:11:28.131Z,17.15
2018-10-11T21:13:56.587Z,17.14
2018-10-11T21:16:24.938Z,17.19
2018-10-11T21:18:53.261Z,17.26
2018-10-11T21:21:21.641Z,17.29
2018-10-11T21:23:50.942Z,17.29
2018-10-11T21:26:19.362Z,17.28
2018-10-11T21:28:47.709Z,17.36
2018-10-11T21:31:16.282Z,17.42
2018-10-11T21:33:44.767Z,17.49
2018-10-11T21:36:13.141Z,17.54
2018-10-11T21:38:41.722Z,17.53
2018-10-11T21:41:10.200Z,17.51
2018-10-11T21:43:38.605Z,17.51
2018-10-11T21:46:07.125Z,17.50
2018-10-11T21:48:35.512Z,17.51
2018-10-11T21:51:03.786Z,17.53
2018-10-11T21:53:32.209Z,17.51
2018-10-11T21:56:00.555Z,17.50
2018-10-11T21:58:28.941Z,17.47
2018-10-11T22:01:02.463Z,17.34
2018-10-11T22:03:30.894Z,17.24
2018-10-11T22:05:59.214Z,17.16
2018-10-11T22:08:27.660Z,17.11
2018-10-11T22:10:56.048Z,17.06
2018-10-11T22:13:24.723Z,17.06
2018-10-11T22:15:53.136Z,17.01
2018-10-11T22:18:21.458Z,16.99
2018-10-11T22:20:49.909Z,17.00
2018-10-11T22:23:18.213Z,17.01
2018-10-11T22:25:46.529Z,17.05
2018-10-11T22:28:14.905Z,17.11
2018-10-11T22:30:43.425Z,17.18
2018-10-11T22:33:11.717Z,17.17
2018-10-11T22:35:40.235Z,17.18
2018-10-11T22:38:08.646Z,17.18
2018-10-11T22:40:36.957Z,17.18
2018-10-11T22:43:05.382Z,17.19
2018-10-11T22:45:33.806Z,17.22
2018-10-11T22:48:02.088Z,17.27
2018-10-11T22:50:30.413Z,17.25
2018-10-11T22:52:58.807Z,17.20
2018-10-11T22:55:30.585Z,17.22
2018-10-11T22:57:59.671Z,17.21
2018-10-11T23:00:28.749Z,17.26
2018-10-11T23:02:57.073Z,17.32
2018-10-11T23:05:25.629Z,17.38
2018-10-11T23:07:53.949Z,17.40
2018-10-11T23:10:22.723Z,17.29
2018-10-11T23:12:51.059Z,17.08
2018-10-11T23:15:19.531Z,16.97
2018-10-11T23:17:48.025Z,16.94
2018-10-11T23:20:16.553Z,17.02
2018-10-11T23:22:44.891Z,17.11
2018-10-11T23:25:13.242Z,17.13
2018-10-11T23:27:42.541Z,17.08
2018-10-11T23:30:12.082Z,17.09
2018-10-11T23:32:41.084Z,17.16
2018-10-11T23:35:10.246Z,17.19
2018-10-11T23:37:38.754Z,17.17
2018-10-11T23:40:07.500Z,17.00
2018-10-11T23:42:35.838Z,16.89
2018-10-11T23:45:04.293Z,16.84
2018-10-11T23:47:32.729Z,16.89
2018-10-11T23:50:01.138Z,17.00
2018-10-11T23:52:29.500Z,17.02
2018-10-11T23:54:57.988Z,17.10
2018-10-11T23:57:26.787Z,17.12
2018-10-11T23:59:55.192Z,17.18
